Time;durP1;ratioP1;P1;durP2;ratioP2;P2;SDS_P1;SDS_P2;PMS_P1;PMS_P2;Temp;Humidity;BMP_temperature;BMP_pressure;BME280_temperature;BME280_humidity;BME280_pressure;Samples;Min_cycle;Max_cycle;Signal;HPM_P1;HPM_P2
2022/08/20 04:01:34;;;;;;;2.90;2.70;;;20.90;99.90;;;;;;5440774;23;20470;-66
2022/08/20 04:04:01;;;;;;;3.63;3.43;;;20.90;99.90;;;;;;4976112;28;20529;-66
2022/08/20 04:06:29;;;;;;;2.80;2.70;;;20.90;99.90;;;;;;4975933;28;20466;-66
2022/08/20 04:08:56;;;;;;;2.67;2.50;;;20.90;99.90;;;;;;4975950;28;20459;-66
2022/08/20 04:11:23;;;;;;;3.67;3.07;;;20.90;99.90;;;;;;4975668;28;20844;-66
2022/08/20 04:13:50;;;;;;;2.90;2.70;;;20.90;99.90;;;;;;4975876;28;20817;-66
2022/08/20 04:16:17;;;;;;;3.63;2.80;;;20.90;99.90;;;;;;4975921;28;20481;-66
2022/08/20 04:18:46;;;;;;;3.43;3.17;;;20.90;99.90;;;;;;4975344;28;20458;-66
2022/08/20 04:21:13;;;;;;;3.73;3.23;;;20.90;99.90;;;;;;4975604;28;20589;-65
2022/08/20 04:23:40;;;;;;;3.70;3.40;;;20.90;99.90;;;;;;4976107;28;20479;-66
2022/08/20 04:26:07;;;;;;;3.33;3.20;;;20.90;99.90;;;;;;4975819;28;20459;-66
2022/08/20 04:28:33;;;;;;;3.43;3.23;;;20.90;99.90;;;;;;4975489;28;20481;-66
2022/08/20 04:31:01;;;;;;;3.17;2.97;;;20.90;99.90;;;;;;4975569;28;20533;-66
2022/08/20 04:33:29;;;;;;;3.67;3.37;;;20.90;99.90;;;;;;4975287;28;20920;-66
2022/08/20 04:35:59;;;;;;;3.13;2.93;;;20.90;99.90;;;;;;4975577;28;20454;-67
2022/08/20 04:38:26;;;;;;;3.50;3.20;;;21.00;99.90;;;;;;4975300;28;20445;-66
2022/08/20 04:40:56;;;;;;;4.93;3.10;;;21.00;99.90;;;;;;4975349;28;20479;-66
2022/08/20 04:43:25;;;;;;;3.83;3.50;;;21.00;99.90;;;;;;4975403;28;20557;-66
2022/08/20 04:45:53;;;;;;;5.40;3.30;;;21.00;99.90;;;;;;4975388;28;20466;-68
2022/08/20 04:48:22;;;;;;;3.90;3.60;;;21.00;99.90;;;;;;4975292;28;20459;-67
2022/08/20 04:50:50;;;;;;;3.80;3.60;;;21.00;99.90;;;;;;4975249;28;20470;-66
2022/08/20 04:53:21;;;;;;;5.00;3.40;;;21.10;99.90;;;;;;4975370;28;20450;-66
2022/08/20 04:55:48;;;;;;;3.20;3.00;;;21.10;99.90;;;;;;4974758;28;20950;-66
2022/08/20 04:58:18;;;;;;;3.50;3.30;;;21.10;99.90;;;;;;4974870;28;20462;-66
2022/08/20 05:00:47;;;;;;;3.20;3.00;;;21.10;99.90;;;;;;4974911;28;20482;-66
2022/08/20 05:03:14;;;;;;;4.03;3.73;;;21.10;99.90;;;;;;4975078;28;20483;-67
2022/08/20 05:05:41;;;;;;;3.67;3.47;;;21.20;99.90;;;;;;4975013;28;20455;-67
2022/08/20 05:08:08;;;;;;;3.63;3.33;;;21.20;99.90;;;;;;4975355;28;20455;-67
2022/08/20 05:10:37;;;;;;;4.80;4.50;;;21.20;99.90;;;;;;4975030;28;20487;-66
2022/08/20 05:13:04;;;;;;;4.03;3.83;;;21.20;99.90;;;;;;4975271;28;20458;-66
2022/08/20 05:15:31;;;;;;;3.97;3.77;;;21.30;99.90;;;;;;4975823;28;20469;-66
2022/08/20 05:18:01;;;;;;;3.70;3.43;;;21.30;99.90;;;;;;4974913;28;20828;-67
2022/08/20 05:20:30;;;;;;;5.30;4.27;;;21.30;99.90;;;;;;4975523;28;20489;-67
2022/08/20 05:22:56;;;;;;;3.60;3.43;;;21.30;99.90;;;;;;4974932;28;20501;-67
2022/08/20 05:25:27;;;;;;;4.00;3.70;;;21.30;99.90;;;;;;4974720;28;20450;-67
2022/08/20 05:27:59;;;;;;;4.20;4.00;;;21.40;99.90;;;;;;4975023;28;20439;-67
2022/08/20 05:30:32;;;;;;;4.87;3.50;;;21.40;99.90;;;;;;4975119;28;20485;-66
2022/08/20 05:32:59;;;;;;;4.07;3.77;;;21.40;99.90;;;;;;4974807;28;20906;-67
2022/08/20 05:35:26;;;;;;;3.97;3.77;;;21.40;99.90;;;;;;4974825;28;20454;-67
2022/08/20 05:37:53;;;;;;;4.43;4.13;;;21.40;99.90;;;;;;4974858;28;20466;-67
2022/08/20 05:40:21;;;;;;;4.30;4.00;;;21.40;99.90;;;;;;4974753;28;20465;-67
2022/08/20 05:42:48;;;;;;;4.43;4.03;;;21.40;99.90;;;;;;4974738;28;20478;-66
2022/08/20 05:45:17;;;;;;;3.70;3.50;;;21.40;99.90;;;;;;4974975;28;20459;-66
2022/08/20 05:47:44;;;;;;;4.47;4.07;;;21.40;99.90;;;;;;4975278;28;20459;-67
2022/08/20 05:50:12;;;;;;;6.23;3.60;;;21.40;99.90;;;;;;4975274;28;20459;-67
2022/08/20 05:52:40;;;;;;;5.03;3.87;;;21.40;99.90;;;;;;4974959;28;20526;-67
2022/08/20 05:55:08;;;;;;;5.80;3.73;;;21.40;99.90;;;;;;4975251;28;20454;-67
2022/08/20 05:57:35;;;;;;;4.80;4.50;;;21.40;99.90;;;;;;4975341;28;20478;-67
2022/08/20 06:00:06;;;;;;;4.60;4.20;;;21.50;99.90;;;;;;4975445;28;20466;-67
2022/08/20 06:05:19;;;;;;;4.43;4.13;;;21.50;99.90;;;;;;4975355;28;20430;-67
2022/08/20 06:07:45;;;;;;;4.73;4.33;;;21.50;99.90;;;;;;4976698;28;20439;-66
2022/08/20 06:10:12;;;;;;;4.63;4.33;;;21.60;99.90;;;;;;4977739;28;20466;-66
2022/08/20 06:12:39;;;;;;;4.40;4.07;;;21.60;99.90;;;;;;4978142;28;20454;-67
2022/08/20 06:15:07;;;;;;;4.13;3.83;;;21.60;99.90;;;;;;4977884;28;20458;-67
2022/08/20 06:17:35;;;;;;;5.13;4.17;;;21.70;99.90;;;;;;4978152;28;20454;-67
2022/08/20 06:20:04;;;;;;;5.60;3.97;;;21.80;99.90;;;;;;4978149;28;20470;-66
2022/08/20 06:22:31;;;;;;;4.70;4.37;;;21.80;99.90;;;;;;4977815;28;20478;-66
2022/08/20 06:24:58;;;;;;;4.33;4.03;;;21.90;99.90;;;;;;4977578;28;20787;-66
2022/08/20 06:27:26;;;;;;;4.20;3.73;;;22.00;99.90;;;;;;4977698;28;20461;-66
2022/08/20 06:29:53;;;;;;;4.30;3.90;;;22.00;99.90;;;;;;4977820;28;20454;-66
2022/08/20 06:32:23;;;;;;;4.17;3.87;;;22.10;99.90;;;;;;4977478;28;20490;-66
2022/08/20 06:34:51;;;;;;;3.63;3.33;;;22.20;99.90;;;;;;4978127;28;20457;-66
2022/08/20 06:37:21;;;;;;;4.57;4.20;;;22.20;99.90;;;;;;4977904;28;20461;-66
2022/08/20 06:39:48;;;;;;;3.40;3.20;;;22.30;99.90;;;;;;4978639;28;20825;-66
2022/08/20 06:42:15;;;;;;;3.90;3.50;;;22.30;99.90;;;;;;4977677;28;20471;-66
2022/08/20 06:44:41;;;;;;;5.60;4.13;;;22.30;99.90;;;;;;4977560;28;20482;-66
2022/08/20 06:47:08;;;;;;;4.43;4.07;;;22.30;99.90;;;;;;4977881;28;20450;-66
2022/08/20 06:49:36;;;;;;;4.47;4.07;;;22.40;99.90;;;;;;4977670;28;20822;-66
2022/08/20 06:52:05;;;;;;;4.10;3.80;;;22.40;99.90;;;;;;4977374;28;20479;-65
2022/08/20 06:54:33;;;;;;;4.30;4.10;;;22.40;99.90;;;;;;4977408;28;20451;-66
2022/08/20 06:56:59;;;;;;;4.67;4.20;;;22.50;99.90;;;;;;4977495;28;20459;-66
2022/08/20 06:59:26;;;;;;;4.93;4.50;;;22.50;99.90;;;;;;4977258;28;20462;-66
2022/08/20 07:01:55;;;;;;;4.50;4.20;;;22.50;99.90;;;;;;4976870;28;20485;-66
2022/08/20 07:04:22;;;;;;;4.27;3.90;;;22.40;99.90;;;;;;4977220;28;20486;-64
2022/08/20 07:06:50;;;;;;;4.07;3.77;;;22.40;99.90;;;;;;4976938;28;20459;-63
2022/08/20 07:09:18;;;;;;;5.13;4.73;;;22.40;99.90;;;;;;4977158;28;20480;-63
2022/08/20 07:11:47;;;;;;;4.77;4.47;;;22.30;99.90;;;;;;4979752;28;20981;-63
2022/08/20 07:14:14;;;;;;;5.27;4.87;;;22.30;99.90;;;;;;4981363;28;20446;-67
2022/08/20 07:16:40;;;;;;;5.77;5.27;;;22.30;99.90;;;;;;4980106;28;20454;-64
2022/08/20 07:19:08;;;;;;;5.43;4.93;;;22.20;99.90;;;;;;4976875;28;20458;-64
2022/08/20 07:21:34;;;;;;;5.10;4.80;;;22.20;99.90;;;;;;4976759;28;20478;-64
2022/08/20 07:24:02;;;;;;;6.17;5.60;;;22.20;99.90;;;;;;4976745;28;20481;-64
2022/08/20 07:26:30;;;;;;;4.63;4.40;;;22.20;99.90;;;;;;4976803;28;20458;-66
2022/08/20 07:28:57;;;;;;;5.43;5.03;;;22.20;99.90;;;;;;4976703;28;20459;-65
2022/08/20 07:34:10;;;;;;;6.63;4.70;;;22.20;99.90;;;;;;4976389;28;20474;-65
2022/08/20 07:36:37;;;;;;;6.10;5.60;;;22.30;99.90;;;;;;4976427;28;20466;-65
2022/08/20 07:39:05;;;;;;;6.37;5.40;;;22.30;99.90;;;;;;4976430;28;20439;-65
2022/08/20 07:41:33;;;;;;;7.37;5.27;;;22.50;99.90;;;;;;4976272;28;20474;-65
2022/08/20 07:44:00;;;;;;;7.33;5.00;;;22.70;99.90;;;;;;4976402;28;20482;-65
2022/08/20 07:46:28;;;;;;;4.70;4.40;;;22.90;99.90;;;;;;4976520;28;20485;-64
2022/08/20 07:48:54;;;;;;;7.67;5.87;;;23.10;99.90;;;;;;4976391;28;20505;-65
2022/08/20 07:51:22;;;;;;;8.17;7.47;;;23.30;99.90;;;;;;4976265;28;20471;-65
2022/08/20 07:53:51;;;;;;;5.63;5.20;;;23.40;99.90;;;;;;4976511;28;20455;-64
2022/08/20 07:56:21;;;;;;;5.50;5.13;;;23.60;99.90;;;;;;4976509;28;20509;-65
2022/08/20 07:58:51;;;;;;;4.30;4.00;;;23.80;99.90;;;;;;4976514;28;20454;-65
2022/08/20 08:01:19;;;;;;;5.70;5.17;;;24.10;99.90;;;;;;4975946;28;20487;-65
2022/08/20 08:03:46;;;;;;;5.10;4.70;;;24.50;99.90;;;;;;4975901;28;20488;-65
2022/08/20 08:06:13;;;;;;;4.57;4.27;;;24.70;99.90;;;;;;4976111;28;20454;-65
2022/08/20 08:08:41;;;;;;;4.17;3.87;;;24.90;99.90;;;;;;4976007;28;20481;-65
2022/08/20 08:11:08;;;;;;;4.80;4.50;;;25.10;99.90;;;;;;4975955;28;20822;-70
2022/08/20 08:13:38;;;;;;;4.67;4.37;;;25.20;99.90;;;;;;4975680;28;20942;-71
2022/08/20 08:16:09;;;;;;;4.70;4.40;;;25.30;99.90;;;;;;4976117;28;20839;-70
2022/08/20 08:24:58;;;;;;;5.00;4.50;;;25.00;99.90;;;;;;4976782;28;20842;-71
2022/08/20 08:27:25;;;;;;;5.27;4.87;;;25.00;99.90;;;;;;4975667;28;20462;-70
2022/08/20 08:29:51;;;;;;;5.07;4.77;;;24.90;99.90;;;;;;4975473;28;20454;-70
2022/08/20 08:32:20;;;;;;;5.00;4.70;;;24.70;99.90;;;;;;4975739;28;20486;-70
2022/08/20 08:34:47;;;;;;;6.40;4.77;;;24.50;99.90;;;;;;4976219;28;20450;-66
2022/08/20 08:37:14;;;;;;;5.10;4.80;;;24.30;99.90;;;;;;4975529;28;20458;-66
2022/08/20 08:39:41;;;;;;;5.07;4.77;;;24.30;99.90;;;;;;4975236;28;20454;-67
2022/08/20 08:42:23;;;;;;;5.17;4.87;;;24.20;99.90;;;;;;4975098;28;20475;-66
2022/08/20 08:44:49;;;;;;;5.03;4.73;;;24.30;99.90;;;;;;4975196;28;20989;-66
2022/08/20 08:47:23;;;;;;;4.70;4.40;;;24.30;99.90;;;;;;4975001;28;20458;-67
2022/08/20 08:49:50;;;;;;;4.63;4.23;;;24.40;99.90;;;;;;4975291;28;20439;-66
2022/08/20 08:52:21;;;;;;;4.50;4.30;;;24.50;99.90;;;;;;4976168;28;20478;-66
2022/08/20 08:54:52;;;;;;;4.80;4.50;;;24.70;99.90;;;;;;4976946;28;20442;-67
2022/08/20 08:57:20;;;;;;;4.77;4.47;;;24.90;99.90;;;;;;4977264;28;20467;-67
2022/08/20 08:59:52;;;;;;;4.10;3.90;;;25.20;99.90;;;;;;4977293;28;20459;-68
2022/08/20 09:02:24;;;;;;;4.20;4.00;;;25.60;99.90;;;;;;4975215;28;20540;-67
2022/08/20 09:04:55;;;;;;;3.87;3.60;;;26.10;99.90;;;;;;4975243;28;20570;-67
2022/08/20 09:07:24;;;;;;;4.27;3.97;;;26.50;99.90;;;;;;4975095;28;20447;-67
2022/08/20 09:09:51;;;;;;;4.03;3.80;;;26.90;99.90;;;;;;4975017;28;20462;-67
2022/08/20 09:12:20;;;;;;;3.77;3.50;;;27.00;99.90;;;;;;4974964;28;20487;-68
2022/08/20 09:14:48;;;;;;;5.63;3.60;;;27.30;99.90;;;;;;4974935;28;20455;-67
2022/08/20 09:17:15;;;;;;;5.63;3.80;;;27.60;99.90;;;;;;4975093;28;20457;-64
2022/08/20 09:19:44;;;;;;;4.03;3.73;;;27.80;99.90;;;;;;4974583;28;20470;-63
2022/08/20 09:22:12;;;;;;;3.40;3.10;;;28.00;99.90;;;;;;4974678;28;20537;-64
2022/08/20 09:24:40;;;;;;;6.03;3.70;;;28.00;99.90;;;;;;4974955;28;20482;-63
2022/08/20 09:27:08;;;;;;;2.87;2.73;;;28.00;99.90;;;;;;4974844;28;20550;-63
2022/08/20 09:29:34;;;;;;;3.10;2.80;;;28.00;99.90;;;;;;4974933;28;20454;-63
2022/08/20 09:32:06;;;;;;;3.57;3.27;;;27.80;99.90;;;;;;4974842;28;20479;-64
2022/08/20 09:34:35;;;;;;;3.93;3.63;;;27.70;99.90;;;;;;4975054;28;20459;-64
2022/08/20 09:37:03;;;;;;;4.57;4.30;;;27.50;99.90;;;;;;4974636;28;20898;-63
2022/08/20 09:39:30;;;;;;;4.00;3.70;;;27.40;99.90;;;;;;4974766;28;20465;-63
2022/08/20 09:42:07;;;;;;;4.33;3.90;;;27.40;99.90;;;;;;4975926;28;20478;-63
2022/08/20 09:44:33;;;;;;;4.33;4.03;;;27.30;99.90;;;;;;4978617;28;20470;-64
2022/08/20 09:47:00;;;;;;;4.27;2.87;;;27.50;99.90;;;;;;4978624;28;20458;-64
2022/08/20 09:49:27;;;;;;;3.73;3.53;;;27.60;99.90;;;;;;4978915;28;20454;-64
2022/08/20 09:51:54;;;;;;;3.47;3.27;;;27.80;99.90;;;;;;4979324;28;20832;-63
2022/08/20 09:54:22;;;;;;;3.20;3.00;;;28.10;99.90;;;;;;4978265;28;20910;-63
2022/08/20 09:56:49;;;;;;;3.13;2.93;;;28.50;99.90;;;;;;4978853;28;20480;-63
2022/08/20 09:59:16;;;;;;;4.17;2.83;;;28.90;99.90;;;;;;4978392;28;20800;-63
2022/08/20 10:01:43;;;;;;;2.90;2.80;;;29.30;99.90;;;;;;4978243;28;20508;-63
2022/08/20 10:04:09;;;;;;;3.23;2.93;;;29.70;99.90;;;;;;4978290;28;20478;-63
2022/08/20 10:06:39;;;;;;;3.60;3.30;;;30.20;99.90;;;;;;4978576;28;20565;-63
2022/08/20 10:09:06;;;;;;;3.20;3.00;;;30.40;99.90;;;;;;4978313;28;20458;-63
2022/08/20 10:11:34;;;;;;;2.90;2.70;;;30.50;99.90;;;;;;4978044;28;20815;-63
2022/08/20 10:14:01;;;;;;;3.27;2.93;;;30.30;99.90;;;;;;4978059;28;20450;-63
2022/08/20 10:16:28;;;;;;;2.93;2.60;;;30.20;99.60;;;;;;4978011;28;20784;-63
2022/08/20 10:18:54;;;;;;;3.00;2.80;;;30.00;99.90;;;;;;4977968;28;20462;-63
2022/08/20 10:21:21;;;;;;;3.30;2.70;;;29.90;99.90;;;;;;4977612;28;20981;-64
2022/08/20 10:23:48;;;;;;;3.50;2.47;;;30.00;99.50;;;;;;4977920;28;20454;-65
2022/08/20 10:26:16;;;;;;;2.57;2.47;;;30.10;99.80;;;;;;4979878;28;20454;-64
2022/08/20 10:28:44;;;;;;;2.60;2.50;;;30.10;99.90;;;;;;4984188;28;20518;-65
2022/08/20 10:31:12;;;;;;;2.90;2.70;;;29.80;99.90;;;;;;4982749;28;20531;-64
2022/08/20 10:33:40;;;;;;;2.83;2.73;;;29.60;99.80;;;;;;4977979;28;20861;-65
2022/08/20 10:36:07;;;;;;;2.43;2.23;;;29.40;99.90;;;;;;4977541;28;21012;-65
2022/08/20 10:38:34;;;;;;;2.57;2.03;;;29.60;99.90;;;;;;4977765;28;20508;-66
2022/08/20 10:41:01;;;;;;;2.20;1.97;;;29.80;99.60;;;;;;4977566;28;20478;-67
2022/08/20 10:43:27;;;;;;;1.77;1.67;;;30.20;99.00;;;;;;4977791;28;20458;-66
2022/08/20 10:45:56;;;;;;;1.60;1.57;;;30.80;97.20;;;;;;4977864;28;20482;-67
2022/08/20 10:48:23;;;;;;;2.37;2.13;;;31.70;95.10;;;;;;4977420;28;20454;-67
2022/08/20 10:50:50;;;;;;;4.23;3.30;;;32.30;94.20;;;;;;4977452;28;20814;-67
2022/08/20 10:53:18;;;;;;;3.10;3.00;;;32.40;93.50;;;;;;4977136;28;20468;-66
2022/08/20 10:55:44;;;;;;;3.50;3.30;;;32.00;92.30;;;;;;4977685;28;20462;-69
2022/08/20 10:58:12;;;;;;;3.40;3.30;;;31.40;92.90;;;;;;4977719;28;20443;-69
2022/08/20 11:00:39;;;;;;;2.83;2.73;;;30.90;94.90;;;;;;4977206;28;20482;-68
2022/08/20 11:03:08;;;;;;;3.40;3.10;;;30.50;94.40;;;;;;4977560;28;20458;-70
2022/08/20 11:05:34;;;;;;;2.30;2.20;;;30.30;95.20;;;;;;4977188;28;20485;-70
2022/08/20 11:08:03;;;;;;;3.30;3.10;;;30.00;95.90;;;;;;4977162;28;20471;-70
2022/08/20 11:10:33;;;;;;;3.27;2.80;;;29.80;96.90;;;;;;4976786;28;21012;-69
2022/08/20 11:13:00;;;;;;;2.87;2.77;;;29.70;97.50;;;;;;4977030;28;20450;-69
2022/08/20 11:15:26;;;;;;;5.60;3.30;;;29.60;96.90;;;;;;4977032;28;20455;-68
2022/08/20 11:17:54;;;;;;;2.33;2.13;;;29.50;97.50;;;;;;4976823;28;20458;-69
2022/08/20 11:20:24;;;;;;;3.40;3.10;;;29.50;97.90;;;;;;4976775;28;20454;-69
2022/08/20 11:22:51;;;;;;;6.47;6.00;;;29.50;97.50;;;;;;4978895;28;20831;-68
2022/08/20 11:25:18;;;;;;;2.90;2.70;;;29.40;97.30;;;;;;4977774;28;20462;-69
2022/08/20 11:27:48;;;;;;;5.83;2.47;;;29.30;97.30;;;;;;4976969;28;20459;-68
2022/08/20 11:30:19;;;;;;;3.60;3.40;;;29.20;98.30;;;;;;4976906;28;20489;-67
2022/08/20 11:32:45;;;;;;;2.73;2.53;;;28.80;99.00;;;;;;4977394;28;20860;-65
2022/08/20 11:35:13;;;;;;;3.27;3.10;;;28.50;99.80;;;;;;4976716;28;20458;-66
2022/08/20 11:37:41;;;;;;;3.20;3.03;;;28.00;99.90;;;;;;4977502;28;20562;-66
2022/08/20 11:40:10;;;;;;;3.73;3.10;;;27.60;99.90;;;;;;4977046;28;20443;-67
2022/08/20 11:42:38;;;;;;;3.80;3.50;;;27.40;99.90;;;;;;4976900;28;20571;-66
2022/08/20 11:45:07;;;;;;;2.60;2.40;;;27.30;99.90;;;;;;4977625;28;20478;-66
2022/08/20 11:47:36;;;;;;;3.40;3.00;;;27.00;99.90;;;;;;4976072;28;20459;-66
2022/08/20 11:50:06;;;;;;;7.03;3.20;;;26.70;99.90;;;;;;4975945;28;20918;-66
2022/08/20 11:52:33;;;;;;;5.27;3.20;;;26.50;99.90;;;;;;4976467;28;20478;-67
2022/08/20 11:55:02;;;;;;;5.87;4.70;;;26.30;99.90;;;;;;4976906;28;20462;-67
2022/08/20 11:57:31;;;;;;;16.33;5.67;;;25.90;99.90;;;;;;4976452;28;20459;-64
2022/08/20 12:00:00;;;;;;;6.50;4.90;;;25.50;99.90;;;;;;4976359;28;20446;-63
2022/08/20 12:02:27;;;;;;;7.37;5.17;;;25.10;99.90;;;;;;4975709;28;20494;-63
2022/08/20 12:04:54;;;;;;;7.57;5.80;;;24.50;99.90;;;;;;4975284;28;20486;-63
2022/08/20 12:07:24;;;;;;;8.87;6.87;;;24.10;99.90;;;;;;4975946;28;20505;-62
2022/08/20 12:09:51;;;;;;;15.07;8.47;;;23.60;99.90;;;;;;4975880;28;20481;-62
2022/08/20 12:12:22;;;;;;;11.60;7.10;;;23.30;99.90;;;;;;4976608;28;20474;-62
2022/08/20 12:14:48;;;;;;;8.00;5.80;;;23.00;99.90;;;;;;4975810;28;20438;-62
2022/08/20 12:17:20;;;;;;;6.83;5.90;;;22.80;99.90;;;;;;4975962;28;20455;-62
2022/08/20 12:19:47;;;;;;;5.80;5.30;;;22.60;99.90;;;;;;4975851;28;20530;-62
2022/08/20 12:22:14;;;;;;;7.07;5.63;;;22.50;99.90;;;;;;4975509;28;20475;-62
2022/08/20 12:24:41;;;;;;;5.33;4.90;;;22.40;99.90;;;;;;4975260;28;20986;-61
2022/08/20 12:27:12;;;;;;;6.27;4.10;;;22.40;99.90;;;;;;4975678;28;20447;-61
2022/08/20 12:29:41;;;;;;;5.33;4.67;;;22.40;99.90;;;;;;4975410;28;20454;-62
2022/08/20 12:32:08;;;;;;;5.00;3.77;;;22.40;99.90;;;;;;4975496;28;20489;-62
2022/08/20 12:34:36;;;;;;;3.30;3.00;;;22.40;99.90;;;;;;4975137;28;20462;-62
2022/08/20 12:37:05;;;;;;;3.70;3.40;;;22.30;99.90;;;;;;4975188;28;20459;-62
2022/08/20 12:39:33;;;;;;;3.90;3.67;;;22.20;99.90;;;;;;4975680;28;20486;-63
2022/08/20 12:42:01;;;;;;;4.07;3.63;;;22.10;99.90;;;;;;4975142;28;20970;-63
2022/08/20 12:44:28;;;;;;;4.07;3.67;;;22.20;99.90;;;;;;4975110;28;20958;-64
2022/08/20 12:47:07;;;;;;;3.00;2.83;;;22.20;99.90;;;;;;4975441;28;20462;-64
2022/08/20 12:49:34;;;;;;;3.53;3.43;;;22.20;99.90;;;;;;4975124;28;20493;-64
2022/08/20 12:52:01;;;;;;;2.80;2.70;;;22.30;99.90;;;;;;4975336;28;20501;-64
2022/08/20 12:54:27;;;;;;;3.83;2.23;;;22.30;99.90;;;;;;4975254;28;20454;-64
2022/08/20 12:56:54;;;;;;;8.00;3.47;;;22.00;99.90;;;;;;4975746;28;20458;-63
2022/08/20 12:59:22;;;;;;;8.00;4.00;;;21.90;99.90;;;;;;4975408;28;20455;-63
2022/08/20 13:01:49;;;;;;;7.17;4.10;;;21.70;99.90;;;;;;4974823;28;20579;-63
2022/08/20 13:04:18;;;;;;;5.03;4.53;;;21.60;99.90;;;;;;4975225;28;20991;-63
2022/08/20 13:06:45;;;;;;;5.40;4.73;;;21.30;99.90;;;;;;4975112;28;20478;-63
2022/08/20 13:09:12;;;;;;;5.53;5.00;;;21.20;99.90;;;;;;4974933;28;20816;-63
2022/08/20 13:11:39;;;;;;;12.63;4.27;;;21.00;99.90;;;;;;4975024;28;20474;-63
2022/08/20 13:14:05;;;;;;;4.03;2.90;;;20.90;99.90;;;;;;4975013;28;21071;-64
2022/08/20 13:16:32;;;;;;;3.37;2.53;;;20.90;99.90;;;;;;4978546;28;20439;-63
2022/08/20 13:18:59;;;;;;;3.83;3.10;;;20.80;99.90;;;;;;4981607;28;20466;-64
2022/08/20 13:21:27;;;;;;;4.63;4.00;;;20.90;99.90;;;;;;4981357;28;20485;-64
2022/08/20 13:23:54;;;;;;;4.93;4.47;;;20.90;99.90;;;;;;4981390;28;20454;-64
2022/08/20 13:26:20;;;;;;;4.67;4.37;;;21.20;99.90;;;;;;4981221;28;20478;-64
2022/08/20 13:28:47;;;;;;;4.70;4.30;;;21.40;99.90;;;;;;4981354;28;20854;-64
2022/08/20 13:31:14;;;;;;;3.90;3.50;;;21.60;99.90;;;;;;4981273;28;20482;-64
2022/08/20 13:33:41;;;;;;;3.90;3.60;;;21.80;99.90;;;;;;4981374;28;20462;-64
2022/08/20 13:36:08;;;;;;;3.97;3.73;;;22.00;99.90;;;;;;4981277;28;20458;-64
2022/08/20 13:38:36;;;;;;;3.80;3.43;;;22.20;99.90;;;;;;4981259;28;20458;-63
2022/08/20 13:41:02;;;;;;;3.07;2.97;;;22.50;99.90;;;;;;4981065;28;20550;-64
2022/08/20 13:43:29;;;;;;;6.37;3.27;;;22.60;99.90;;;;;;4980906;28;20964;-64
2022/08/20 13:45:56;;;;;;;5.60;3.10;;;22.70;99.90;;;;;;4981278;28;20479;-64
2022/08/20 13:48:22;;;;;;;4.80;3.10;;;22.80;99.90;;;;;;4981446;28;20815;-64
2022/08/20 13:50:49;;;;;;;3.10;2.90;;;22.90;99.90;;;;;;4981723;28;20481;-63
2022/08/20 13:53:16;;;;;;;3.00;2.80;;;23.10;99.90;;;;;;4981177;28;20454;-65
2022/08/20 13:55:44;;;;;;;3.67;3.37;;;23.20;99.90;;;;;;4980868;28;20450;-64
2022/08/20 13:58:11;;;;;;;3.10;2.90;;;23.40;99.90;;;;;;4981824;28;20454;-64
2022/08/20 14:00:38;;;;;;;4.90;3.20;;;23.50;99.90;;;;;;4980834;28;20517;-64
2022/08/20 14:03:06;;;;;;;9.07;2.83;;;23.50;99.90;;;;;;4980909;28;20800;-64
2022/08/20 14:05:34;;;;;;;4.30;3.90;;;23.50;99.90;;;;;;4981054;28;20478;-64
2022/08/20 14:08:07;;;;;;;3.77;3.47;;;23.60;99.90;;;;;;4981129;28;20458;-64
2022/08/20 14:10:34;;;;;;;4.57;3.30;;;23.80;99.90;;;;;;4980990;28;20514;-64
2022/08/20 14:13:03;;;;;;;3.73;3.50;;;24.00;99.90;;;;;;4980924;28;20458;-64
2022/08/20 14:15:30;;;;;;;3.27;3.10;;;24.20;99.90;;;;;;4980818;28;20541;-64
2022/08/20 14:17:57;;;;;;;2.73;2.50;;;24.50;99.90;;;;;;4980886;28;20459;-64
2022/08/20 14:20:27;;;;;;;3.33;3.20;;;24.70;99.90;;;;;;4980627;28;20517;-65
2022/08/20 14:22:53;;;;;;;2.77;2.67;;;25.00;99.90;;;;;;4980579;28;21008;-64
2022/08/20 14:25:22;;;;;;;2.90;2.70;;;25.20;99.90;;;;;;4980747;28;20485;-64
2022/08/20 14:27:49;;;;;;;3.70;3.10;;;25.20;99.90;;;;;;4978440;28;20826;-64
2022/08/20 14:30:20;;;;;;;3.43;3.23;;;25.30;99.90;;;;;;4977620;28;20934;-64
2022/08/20 14:32:46;;;;;;;2.90;2.70;;;25.30;99.90;;;;;;4977904;28;20447;-64
2022/08/20 14:35:14;;;;;;;3.63;2.40;;;25.30;99.90;;;;;;4978218;28;20463;-64
2022/08/20 14:37:42;;;;;;;3.40;3.20;;;25.40;99.90;;;;;;4977364;28;20461;-64
2022/08/20 14:40:13;;;;;;;2.83;2.63;;;25.60;99.90;;;;;;4977347;28;20829;-64
2022/08/20 14:42:40;;;;;;;3.27;3.07;;;25.40;99.90;;;;;;4977262;28;20474;-64
2022/08/20 14:45:09;;;;;;;2.70;2.60;;;25.40;99.90;;;;;;4978157;28;20796;-63
2022/08/20 14:47:40;;;;;;;6.03;2.47;;;25.50;99.90;;;;;;4977556;28;20990;-64
2022/08/20 14:50:10;;;;;;;2.90;2.70;;;25.60;99.90;;;;;;4978009;28;20450;-64
2022/08/20 14:52:37;;;;;;;3.10;2.90;;;25.70;99.90;;;;;;4977548;28;20485;-64
2022/08/20 14:55:04;;;;;;;2.57;2.47;;;25.70;99.90;;;;;;4977928;28;20460;-65
2022/08/20 14:57:32;;;;;;;3.60;3.33;;;25.50;99.90;;;;;;4977413;28;20454;-64
2022/08/20 14:59:59;;;;;;;5.07;4.70;;;25.30;99.90;;;;;;4977327;28;20455;-64
2022/08/20 15:02:26;;;;;;;4.13;3.90;;;25.30;99.90;;;;;;4976819;28;20489;-63
2022/08/20 15:04:54;;;;;;;2.80;2.70;;;25.20;99.90;;;;;;4977465;28;20454;-64
2022/08/20 15:07:24;;;;;;;2.90;2.70;;;25.10;99.90;;;;;;4977105;28;20478;-64
2022/08/20 15:09:51;;;;;;;3.57;2.30;;;24.90;99.90;;;;;;4977905;28;20434;-63
2022/08/20 15:12:18;;;;;;;2.53;2.43;;;24.90;99.90;;;;;;4977004;28;20507;-64
2022/08/20 15:14:45;;;;;;;2.23;2.13;;;25.10;99.90;;;;;;4977256;28;20462;-64
2022/08/20 15:17:17;;;;;;;2.97;2.70;;;25.20;99.90;;;;;;4976896;28;20457;-64
2022/08/20 15:19:44;;;;;;;2.77;2.57;;;25.20;99.90;;;;;;4977077;28;20450;-64
2022/08/20 15:22:12;;;;;;;2.63;2.43;;;24.90;99.90;;;;;;4976855;28;20532;-64
2022/08/20 15:24:39;;;;;;;3.00;2.80;;;24.70;99.90;;;;;;4976804;28;20450;-64
2022/08/20 15:27:11;;;;;;;2.40;2.30;;;24.70;99.90;;;;;;4976814;28;20486;-64
2022/08/20 15:29:38;;;;;;;2.47;2.37;;;24.90;99.90;;;;;;4977017;28;20446;-64
2022/08/20 15:32:07;;;;;;;2.83;2.20;;;25.10;99.90;;;;;;4976506;28;20986;-64
2022/08/20 15:34:34;;;;;;;2.90;2.20;;;25.20;99.90;;;;;;4976469;28;20454;-64
2022/08/20 15:37:06;;;;;;;3.20;2.20;;;25.20;99.90;;;;;;4976709;28;20450;-64
2022/08/20 15:39:34;;;;;;;2.40;2.30;;;25.20;99.90;;;;;;4975585;28;20439;-64
2022/08/20 15:42:01;;;;;;;2.30;2.20;;;25.20;99.90;;;;;;4976589;28;20533;-64
2022/08/20 15:44:28;;;;;;;1.90;1.80;;;25.20;99.90;;;;;;4976667;28;20464;-64
2022/08/20 15:46:54;;;;;;;3.83;3.63;;;25.30;99.90;;;;;;4976495;28;20482;-64
2022/08/20 15:49:23;;;;;;;2.77;2.67;;;25.30;99.90;;;;;;4976510;28;20873;-64
2022/08/20 15:51:50;;;;;;;3.87;3.57;;;25.30;99.90;;;;;;4976111;28;21017;-64
2022/08/20 15:54:20;;;;;;;2.63;2.43;;;25.20;99.90;;;;;;4976548;28;20458;-64
2022/08/20 15:56:57;;;;;;;3.90;3.70;;;25.40;99.90;;;;;;4976288;28;20553;-64
2022/08/20 16:00:00;;;;;;;3.17;2.97;;;25.40;99.90;;;;;;4976628;28;20442;-64
2022/08/20 16:02:52;;;;;;;12.00;11.20;;;25.30;99.90;;;;;;4976263;28;20491;-64
2022/08/20 16:05:25;;;;;;;4.13;3.80;;;25.30;99.90;;;;;;4976655;28;20439;-64
2022/08/20 16:08:01;;;;;;;4.27;3.97;;;25.30;99.90;;;;;;4976142;28;20471;-64
2022/08/20 16:10:39;;;;;;;5.57;5.17;;;25.20;99.90;;;;;;4976135;28;20565;-64
2022/08/20 16:13:29;;;;;;;3.80;3.50;;;25.20;99.90;;;;;;4976048;28;20434;-64
2022/08/20 16:15:59;;;;;;;2.20;2.07;;;25.10;99.90;;;;;;4976179;28;20443;-64
2022/08/20 16:18:30;;;;;;;3.60;2.83;;;25.10;99.90;;;;;;4975897;28;20436;-64
2022/08/20 16:20:57;;;;;;;2.80;2.60;;;25.20;99.90;;;;;;4975978;28;20481;-64
2022/08/20 16:23:29;;;;;;;1.90;1.80;;;25.20;99.90;;;;;;4975864;28;20455;-64
2022/08/20 16:26:10;;;;;;;2.10;1.97;;;25.30;99.90;;;;;;4976038;28;20463;-64
2022/08/20 16:28:48;;;;;;;3.50;1.90;;;25.30;99.90;;;;;;4975938;28;20442;-64
2022/08/20 16:31:19;;;;;;;1.63;1.53;;;25.40;99.90;;;;;;4975772;28;20482;-64
2022/08/20 16:34:01;;;;;;;1.73;1.57;;;25.50;99.90;;;;;;4975787;28;20442;-64
2022/08/20 16:36:35;;;;;;;1.60;1.50;;;25.70;99.90;;;;;;4976146;28;20435;-65
2022/08/20 16:39:07;;;;;;;2.03;1.80;;;25.70;99.90;;;;;;4975631;28;20446;-64
2022/08/20 16:41:39;;;;;;;2.83;2.03;;;25.70;99.90;;;;;;4975683;28;20478;-64
2022/08/20 16:44:16;;;;;;;2.07;1.73;;;25.80;99.90;;;;;;4975652;28;21002;-64
2022/08/20 16:46:50;;;;;;;2.20;2.00;;;25.80;99.90;;;;;;4975507;28;20513;-64
2022/08/20 16:49:16;;;;;;;2.33;2.23;;;25.60;99.90;;;;;;4975342;28;20443;-64
2022/08/20 16:51:47;;;;;;;1.60;1.50;;;25.60;99.90;;;;;;4974890;28;20479;-64
2022/08/20 16:54:14;;;;;;;1.40;1.30;;;25.50;99.90;;;;;;4975450;28;20591;-64
2022/08/20 16:56:44;;;;;;;1.80;1.70;;;25.50;99.90;;;;;;4976467;28;20854;-64
2022/08/20 16:59:14;;;;;;;1.80;1.37;;;25.50;99.90;;;;;;4976817;28;20476;-64
2022/08/20 17:01:41;;;;;;;1.80;1.60;;;25.40;99.90;;;;;;4975564;28;21020;-64
2022/08/20 17:04:19;;;;;;;2.27;1.90;;;25.40;99.50;;;;;;4975240;28;20545;-64